RYR990N LPPT-EGPH
Flight info
| Callsign | RYR990N |
|---|---|
| Flight time | 2h 33m |
| Altitude | 38000 |
| Route | IXIDA DCT DIVUT DCT PINEK DCT ADVAT/M079F380 T290 GELPO DCT JABEX/N0450F380 DCT BIBLA DCT KOMAG DCT ROTEV DCT GOTNA DCT BLACA P600 TUNSO |
| Aircraft | B738/M-SDE2E3FGHIRWXY/LB1 |
Departure
| Time | 2026-04-22 11:21 |
|---|---|
| Airport | Lisbon Humberto Delgado Airport (LPPT) |
Arrival
| Time | 2026-04-22 13:55 |
|---|---|
| Airport | Edinburgh Airport (EGPH) |
| Time | Latitude | Longitude | Altitude | Speed | Heading |
|---|---|---|---|---|---|
| 2026-04-22 10:54 | 38.76451 | -9.13881 | 347 ft | 0 kts | 168° |
| 2026-04-22 11:11 | 38.76457 | -9.13882 | 357 ft | 2 kts | 168° |
| 2026-04-22 11:11 | 38.76476 | -9.13887 | 350 ft | 3 kts | 168° |
| 2026-04-22 11:11 | 38.76492 | -9.13891 | 357 ft | 3 kts | 159° |
| 2026-04-22 11:12 | 38.76506 | -9.13902 | 352 ft | 3 kts | 115° |
| 2026-04-22 11:12 | 38.76509 | -9.13925 | 354 ft | 3 kts | 81° |
| 2026-04-22 11:12 | 38.76507 | -9.13937 | 349 ft | 0 kts | 78° |
| 2026-04-22 11:15 | 38.76513 | -9.13921 | 355 ft | 4 kts | 59° |
| 2026-04-22 11:15 | 38.76535 | -9.13924 | 352 ft | 6 kts | 329° |
| 2026-04-22 11:15 | 38.76583 | -9.13914 | 351 ft | 10 kts | 57° |
| 2026-04-22 11:16 | 38.76602 | -9.13802 | 348 ft | 15 kts | 78° |
| 2026-04-22 11:16 | 38.76627 | -9.13651 | 345 ft | 20 kts | 78° |
| 2026-04-22 11:16 | 38.76658 | -9.13474 | 349 ft | 19 kts | 65° |
| 2026-04-22 11:16 | 38.76744 | -9.13384 | 342 ft | 16 kts | 33° |
| 2026-04-22 11:17 | 38.76853 | -9.13382 | 346 ft | 17 kts | 347° |
| 2026-04-22 11:17 | 38.76979 | -9.13417 | 343 ft | 20 kts | 348° |
| 2026-04-22 11:17 | 38.77121 | -9.13455 | 352 ft | 22 kts | 348° |
| 2026-04-22 11:17 | 38.77281 | -9.13497 | 350 ft | 25 kts | 348° |
| 2026-04-22 11:18 | 38.77456 | -9.13545 | 347 ft | 26 kts | 348° |
| 2026-04-22 11:18 | 38.77629 | -9.13593 | 356 ft | 25 kts | 349° |
| 2026-04-22 11:18 | 38.77786 | -9.13547 | 360 ft | 23 kts | 22° |
| 2026-04-22 11:18 | 38.77934 | -9.13469 | 357 ft | 22 kts | 22° |
| 2026-04-22 11:19 | 38.78074 | -9.13395 | 359 ft | 22 kts | 23° |
| 2026-04-22 11:19 | 38.78214 | -9.13321 | 359 ft | 21 kts | 21° |
| 2026-04-22 11:19 | 38.78348 | -9.13251 | 360 ft | 21 kts | 22° |
| 2026-04-22 11:19 | 38.78437 | -9.13220 | 361 ft | 20 kts | 355° |
| 2026-04-22 11:20 | 38.78552 | -9.13344 | 362 ft | 14 kts | 285° |
| 2026-04-22 11:20 | 38.78510 | -9.13391 | 361 ft | 12 kts | 201° |
| 2026-04-22 11:20 | 38.78248 | -9.13532 | 367 ft | 75 kts | 202° |
| 2026-04-22 11:20 | 38.77564 | -9.13897 | 363 ft | 136 kts | 202° |
| 2026-04-22 11:21 | 38.76908 | -9.14246 | 354 ft | 171 kts | 203° |
| 2026-04-22 11:21 | 38.75786 | -9.14857 | 1006 ft | 177 kts | 202° |
| 2026-04-22 11:21 | 38.74669 | -9.15461 | 2143 ft | 173 kts | 200° |
| 2026-04-22 11:21 | 38.73502 | -9.16080 | 2781 ft | 190 kts | 200° |
| 2026-04-22 11:22 | 38.72224 | -9.16752 | 3284 ft | 209 kts | 200° |
| 2026-04-22 11:22 | 38.70847 | -9.17471 | 3940 ft | 217 kts | 199° |
| 2026-04-22 11:22 | 38.69426 | -9.18209 | 4680 ft | 225 kts | 199° |
| 2026-04-22 11:22 | 38.67912 | -9.18990 | 5162 ft | 240 kts | 199° |
| 2026-04-22 11:23 | 38.66481 | -9.20153 | 5889 ft | 253 kts | 223° |
| 2026-04-22 11:23 | 38.65567 | -9.22102 | 6790 ft | 265 kts | 245° |
| 2026-04-22 11:23 | 38.65358 | -9.24495 | 7593 ft | 280 kts | 268° |
| 2026-04-22 11:23 | 38.65817 | -9.26972 | 8371 ft | 292 kts | 284° |
| 2026-04-22 11:24 | 38.66805 | -9.29283 | 9122 ft | 307 kts | 307° |
| 2026-04-22 11:24 | 38.68589 | -9.30865 | 9882 ft | 321 kts | 336° |
| 2026-04-22 11:24 | 38.70824 | -9.31355 | 10481 ft | 335 kts | 359° |
| 2026-04-22 11:24 | 38.73225 | -9.31086 | 10691 ft | 358 kts | 8° |
| 2026-04-22 11:25 | 38.75761 | -9.30556 | 10898 ft | 379 kts | 10° |
| 2026-04-22 11:25 | 38.78387 | -9.29929 | 11397 ft | 388 kts | 10° |
| 2026-04-22 11:25 | 38.81048 | -9.29281 | 12128 ft | 390 kts | 9° |
| 2026-04-22 11:25 | 38.83719 | -9.28643 | 12863 ft | 393 kts | 9° |
| 2026-04-22 11:26 | 38.86424 | -9.28013 | 13555 ft | 396 kts | 8° |
| 2026-04-22 11:26 | 38.89145 | -9.27394 | 14224 ft | 400 kts | 8° |
| 2026-04-22 11:26 | 38.91895 | -9.26780 | 14885 ft | 402 kts | 8° |
| 2026-04-22 11:26 | 38.94662 | -9.26168 | 15535 ft | 405 kts | 8° |
| 2026-04-22 11:27 | 38.97446 | -9.25556 | 16150 ft | 409 kts | 7° |
| 2026-04-22 11:27 | 39.00262 | -9.24939 | 16747 ft | 413 kts | 7° |
| 2026-04-22 11:27 | 39.03107 | -9.24316 | 17355 ft | 416 kts | 7° |
| 2026-04-22 11:27 | 39.05969 | -9.23688 | 17991 ft | 419 kts | 7° |
| 2026-04-22 11:28 | 39.08820 | -9.23062 | 18553 ft | 422 kts | 7° |
| 2026-04-22 11:28 | 39.11760 | -9.22416 | 19091 ft | 425 kts | 7° |
| 2026-04-22 11:28 | 39.14689 | -9.21772 | 19602 ft | 428 kts | 7° |
| 2026-04-22 11:28 | 39.17638 | -9.21122 | 20129 ft | 431 kts | 7° |
| 2026-04-22 11:29 | 39.20597 | -9.20470 | 20648 ft | 433 kts | 7° |
| 2026-04-22 11:29 | 39.23579 | -9.19812 | 21163 ft | 436 kts | 7° |
| 2026-04-22 11:29 | 39.26580 | -9.19149 | 21643 ft | 439 kts | 7° |
| 2026-04-22 11:29 | 39.29600 | -9.18482 | 22112 ft | 442 kts | 7° |
| 2026-04-22 11:30 | 39.32648 | -9.17808 | 22591 ft | 445 kts | 7° |
| 2026-04-22 11:30 | 39.35711 | -9.17130 | 23075 ft | 448 kts | 7° |
| 2026-04-22 11:30 | 39.38790 | -9.16448 | 23557 ft | 450 kts | 7° |
| 2026-04-22 11:30 | 39.41890 | -9.15760 | 23947 ft | 453 kts | 7° |
| 2026-04-22 11:31 | 39.45006 | -9.15068 | 24339 ft | 455 kts | 7° |
| 2026-04-22 11:31 | 39.48135 | -9.14373 | 24715 ft | 458 kts | 7° |
| 2026-04-22 11:31 | 39.51284 | -9.13673 | 25067 ft | 461 kts | 7° |
| 2026-04-22 11:31 | 39.54411 | -9.12977 | 25419 ft | 463 kts | 7° |
| 2026-04-22 11:32 | 39.57596 | -9.12268 | 25778 ft | 465 kts | 7° |
| 2026-04-22 11:32 | 39.60789 | -9.11556 | 26135 ft | 467 kts | 7° |
| 2026-04-22 11:32 | 39.64002 | -9.10838 | 26466 ft | 470 kts | 7° |
| 2026-04-22 11:32 | 39.67235 | -9.10116 | 26798 ft | 472 kts | 7° |
| 2026-04-22 11:33 | 39.70478 | -9.09391 | 27117 ft | 474 kts | 7° |
| 2026-04-22 11:33 | 39.73731 | -9.08663 | 27441 ft | 477 kts | 7° |
| 2026-04-22 11:33 | 39.77015 | -9.07927 | 27756 ft | 479 kts | 7° |
| 2026-04-22 11:33 | 39.80298 | -9.07190 | 28082 ft | 481 kts | 7° |
| 2026-04-22 11:34 | 39.83609 | -9.06447 | 28380 ft | 483 kts | 7° |
| 2026-04-22 11:34 | 39.86927 | -9.05702 | 28687 ft | 485 kts | 7° |
| 2026-04-22 11:34 | 39.90262 | -9.04951 | 28959 ft | 488 kts | 8° |
| 2026-04-22 11:34 | 39.93615 | -9.04197 | 29245 ft | 490 kts | 8° |
| 2026-04-22 11:35 | 39.96976 | -9.03439 | 29526 ft | 492 kts | 7° |
| 2026-04-22 11:35 | 40.00352 | -9.02677 | 29812 ft | 493 kts | 8° |
| 2026-04-22 11:35 | 40.03741 | -9.01912 | 30106 ft | 494 kts | 8° |
| 2026-04-22 11:35 | 40.07129 | -9.01146 | 30437 ft | 494 kts | 8° |
| 2026-04-22 11:36 | 40.10509 | -9.00380 | 30804 ft | 492 kts | 8° |
| 2026-04-22 11:36 | 40.13870 | -8.99618 | 31162 ft | 490 kts | 8° |
| 2026-04-22 11:36 | 40.17231 | -8.98855 | 31455 ft | 490 kts | 8° |
| 2026-04-22 11:36 | 40.20590 | -8.98093 | 31720 ft | 491 kts | 8° |
| 2026-04-22 11:37 | 40.23954 | -8.97329 | 32011 ft | 490 kts | 8° |
| 2026-04-22 11:37 | 40.27307 | -8.96567 | 32340 ft | 489 kts | 8° |
| 2026-04-22 11:37 | 40.30659 | -8.95803 | 32645 ft | 488 kts | 8° |
| 2026-04-22 11:37 | 40.34000 | -8.95042 | 32904 ft | 488 kts | 8° |
| 2026-04-22 11:38 | 40.37347 | -8.94279 | 33169 ft | 488 kts | 8° |
| 2026-04-22 11:38 | 40.40688 | -8.93516 | 33482 ft | 487 kts | 8° |
| 2026-04-22 11:38 | 40.47352 | -8.91992 | 34029 ft | 486 kts | 8° |
| 2026-04-22 11:39 | 40.50675 | -8.91231 | 34239 ft | 486 kts | 8° |
| 2026-04-22 11:39 | 40.53997 | -8.90469 | 34504 ft | 484 kts | 8° |
| 2026-04-22 11:39 | 40.57309 | -8.89709 | 34759 ft | 483 kts | 8° |
| 2026-04-22 11:39 | 40.60626 | -8.88947 | 34973 ft | 482 kts | 8° |
| 2026-04-22 11:40 | 40.63927 | -8.88188 | 35216 ft | 481 kts | 8° |
| 2026-04-22 11:40 | 40.67212 | -8.87432 | 35492 ft | 478 kts | 8° |
| 2026-04-22 11:40 | 40.70487 | -8.86677 | 35739 ft | 477 kts | 8° |
| 2026-04-22 11:40 | 40.73750 | -8.85924 | 35933 ft | 477 kts | 8° |
| 2026-04-22 11:41 | 40.80285 | -8.84415 | 36016 ft | 476 kts | 8° |
| 2026-04-22 11:41 | 40.86763 | -8.82916 | 36035 ft | 476 kts | 8° |
| 2026-04-22 11:42 | 40.93335 | -8.81393 | 36032 ft | 477 kts | 8° |
| 2026-04-22 11:42 | 40.99867 | -8.79875 | 36032 ft | 478 kts | 8° |
| 2026-04-22 11:43 | 41.06425 | -8.78348 | 36035 ft | 478 kts | 8° |
| 2026-04-22 11:43 | 41.12976 | -8.76819 | 36022 ft | 477 kts | 8° |
| 2026-04-22 11:44 | 41.19448 | -8.75305 | 36019 ft | 475 kts | 8° |
| 2026-04-22 11:44 | 41.25956 | -8.73781 | 36030 ft | 476 kts | 8° |
| 2026-04-22 11:45 | 41.32485 | -8.72249 | 36027 ft | 477 kts | 7° |
| 2026-04-22 11:45 | 41.39019 | -8.70712 | 36025 ft | 477 kts | 7° |
| 2026-04-22 11:46 | 41.45539 | -8.69174 | 36024 ft | 475 kts | 7° |
| 2026-04-22 11:46 | 41.52041 | -8.67638 | 36033 ft | 474 kts | 7° |
| 2026-04-22 11:47 | 41.58538 | -8.66101 | 36050 ft | 475 kts | 7° |
| 2026-04-22 11:47 | 41.65053 | -8.64556 | 36038 ft | 476 kts | 7° |
| 2026-04-22 11:48 | 41.71580 | -8.63005 | 36025 ft | 476 kts | 7° |
| 2026-04-22 11:48 | 41.78098 | -8.61452 | 36025 ft | 476 kts | 7° |
| 2026-04-22 11:49 | 41.84636 | -8.60219 | 36028 ft | 472 kts | 358° |
| 2026-04-22 11:49 | 41.91087 | -8.61145 | 36053 ft | 464 kts | 345° |
| 2026-04-22 11:50 | 41.97416 | -8.62896 | 36039 ft | 464 kts | 344° |
| 2026-04-22 11:50 | 42.03750 | -8.64656 | 36043 ft | 465 kts | 344° |
| 2026-04-22 11:51 | 42.10090 | -8.66366 | 36028 ft | 465 kts | 344° |
| 2026-04-22 11:51 | 42.16427 | -8.68049 | 36044 ft | 464 kts | 344° |
| 2026-04-22 11:52 | 42.22763 | -8.69728 | 36057 ft | 463 kts | 344° |
| 2026-04-22 11:52 | 42.29048 | -8.71400 | 36049 ft | 464 kts | 344° |
| 2026-04-22 11:53 | 42.35425 | -8.73101 | 36040 ft | 464 kts | 344° |
| 2026-04-22 11:53 | 42.41717 | -8.74782 | 36039 ft | 464 kts | 344° |
| 2026-04-22 11:54 | 42.48050 | -8.76478 | 36034 ft | 464 kts | 344° |
| 2026-04-22 11:54 | 42.54380 | -8.78177 | 36032 ft | 464 kts | 344° |
| 2026-04-22 11:55 | 42.60708 | -8.79879 | 36030 ft | 463 kts | 343° |
| 2026-04-22 11:55 | 42.67032 | -8.81583 | 36037 ft | 463 kts | 343° |
| 2026-04-22 11:56 | 42.73347 | -8.83288 | 36027 ft | 462 kts | 343° |
| 2026-04-22 11:56 | 42.79651 | -8.84994 | 36029 ft | 462 kts | 343° |
| 2026-04-22 11:57 | 42.85948 | -8.86702 | 36036 ft | 461 kts | 343° |
| 2026-04-22 11:57 | 42.92225 | -8.88407 | 36032 ft | 460 kts | 343° |
| 2026-04-22 11:58 | 42.98495 | -8.90114 | 36030 ft | 459 kts | 343° |
| 2026-04-22 11:58 | 43.04755 | -8.91823 | 36026 ft | 458 kts | 343° |
| 2026-04-22 11:59 | 43.11012 | -8.93534 | 36008 ft | 458 kts | 342° |
| 2026-04-22 11:59 | 43.17262 | -8.95247 | 36015 ft | 458 kts | 342° |
| 2026-04-22 12:00 | 43.23509 | -8.96962 | 36005 ft | 458 kts | 342° |
| 2026-04-22 12:00 | 43.29716 | -8.98671 | 36011 ft | 459 kts | 342° |
| 2026-04-22 12:01 | 43.35975 | -9.00397 | 36011 ft | 459 kts | 342° |
| 2026-04-22 12:01 | 43.42239 | -9.02128 | 36009 ft | 459 kts | 342° |
| 2026-04-22 12:02 | 43.48509 | -9.03864 | 36008 ft | 460 kts | 342° |
| 2026-04-22 12:02 | 43.54788 | -9.05607 | 36006 ft | 461 kts | 342° |
| 2026-04-22 12:03 | 43.61077 | -9.07355 | 36002 ft | 461 kts | 342° |
| 2026-04-22 12:03 | 43.67370 | -9.09109 | 36002 ft | 461 kts | 342° |
| 2026-04-22 12:04 | 43.73665 | -9.10867 | 35999 ft | 462 kts | 342° |
| 2026-04-22 12:04 | 43.79962 | -9.12629 | 36002 ft | 462 kts | 342° |
| 2026-04-22 12:05 | 43.86263 | -9.14396 | 36003 ft | 462 kts | 342° |
| 2026-04-22 12:05 | 43.92564 | -9.16167 | 36000 ft | 462 kts | 342° |
| 2026-04-22 12:06 | 43.98861 | -9.17941 | 36001 ft | 462 kts | 341° |
| 2026-04-22 12:06 | 44.05155 | -9.19718 | 36000 ft | 462 kts | 341° |
| 2026-04-22 12:07 | 44.11408 | -9.21487 | 35998 ft | 461 kts | 341° |
| 2026-04-22 12:07 | 44.17699 | -9.23270 | 35997 ft | 461 kts | 341° |
| 2026-04-22 12:08 | 44.23994 | -9.25059 | 35995 ft | 461 kts | 341° |
| 2026-04-22 12:08 | 44.30280 | -9.26849 | 35994 ft | 461 kts | 341° |
| 2026-04-22 12:09 | 44.35554 | -9.28354 | 35991 ft | 461 kts | 341° |
| 2026-04-22 12:09 | 44.41841 | -9.30152 | 35994 ft | 461 kts | 341° |
| 2026-04-22 12:10 | 44.48092 | -9.31943 | 35988 ft | 461 kts | 341° |
| 2026-04-22 12:10 | 44.54381 | -9.33749 | 35998 ft | 462 kts | 341° |
| 2026-04-22 12:11 | 44.60676 | -9.35561 | 35993 ft | 462 kts | 341° |
| 2026-04-22 12:11 | 44.66974 | -9.37378 | 35984 ft | 462 kts | 341° |
| 2026-04-22 12:12 | 44.73276 | -9.39200 | 35979 ft | 462 kts | 341° |
| 2026-04-22 12:12 | 44.79581 | -9.41027 | 35981 ft | 463 kts | 341° |
| 2026-04-22 12:13 | 44.85888 | -9.42858 | 35979 ft | 463 kts | 341° |
| 2026-04-22 12:13 | 44.92200 | -9.44696 | 35976 ft | 463 kts | 341° |
| 2026-04-22 12:14 | 44.98514 | -9.46534 | 35977 ft | 464 kts | 342° |
| 2026-04-22 12:14 | 45.05034 | -9.47232 | 35988 ft | 474 kts | 353° |
| 2026-04-22 12:15 | 45.11654 | -9.47204 | 35976 ft | 476 kts | 354° |
| 2026-04-22 12:15 | 45.18274 | -9.47161 | 35976 ft | 476 kts | 353° |
| 2026-04-22 12:16 | 45.24896 | -9.47179 | 35971 ft | 476 kts | 353° |
| 2026-04-22 12:16 | 45.31523 | -9.47232 | 35972 ft | 476 kts | 353° |
| 2026-04-22 12:17 | 45.38146 | -9.47293 | 35971 ft | 476 kts | 353° |
| 2026-04-22 12:17 | 45.44774 | -9.47353 | 35971 ft | 476 kts | 353° |
| 2026-04-22 12:18 | 45.51402 | -9.47411 | 35973 ft | 476 kts | 353° |
| 2026-04-22 12:18 | 45.58032 | -9.47468 | 35971 ft | 476 kts | 353° |
| 2026-04-22 12:19 | 45.64658 | -9.47525 | 35971 ft | 476 kts | 353° |
| 2026-04-22 12:19 | 45.71284 | -9.47582 | 35971 ft | 476 kts | 353° |
| 2026-04-22 12:20 | 45.77910 | -9.47639 | 35967 ft | 476 kts | 353° |
| 2026-04-22 12:20 | 45.84532 | -9.47697 | 35970 ft | 476 kts | 353° |
| 2026-04-22 12:21 | 45.91157 | -9.47754 | 35970 ft | 476 kts | 353° |
| 2026-04-22 12:21 | 45.97735 | -9.47812 | 35964 ft | 476 kts | 354° |
| 2026-04-22 12:22 | 46.04359 | -9.47870 | 35965 ft | 476 kts | 354° |
| 2026-04-22 12:22 | 46.10984 | -9.47928 | 35965 ft | 476 kts | 354° |
| 2026-04-22 12:23 | 46.17610 | -9.47986 | 35967 ft | 476 kts | 354° |
| 2026-04-22 12:23 | 46.24236 | -9.48045 | 35966 ft | 476 kts | 354° |
| 2026-04-22 12:24 | 46.30874 | -9.48103 | 35963 ft | 477 kts | 354° |
| 2026-04-22 12:24 | 46.37503 | -9.48162 | 35957 ft | 477 kts | 354° |
| 2026-04-22 12:25 | 46.44132 | -9.48221 | 35959 ft | 477 kts | 354° |
| 2026-04-22 12:25 | 46.50769 | -9.48280 | 35967 ft | 477 kts | 354° |
| 2026-04-22 12:26 | 46.57409 | -9.48339 | 35960 ft | 477 kts | 354° |
| 2026-04-22 12:26 | 46.64052 | -9.48399 | 35966 ft | 478 kts | 354° |
| 2026-04-22 12:27 | 46.70702 | -9.48458 | 35961 ft | 478 kts | 355° |
| 2026-04-22 12:27 | 46.77347 | -9.48518 | 35955 ft | 478 kts | 355° |
| 2026-04-22 12:28 | 46.83998 | -9.48578 | 35957 ft | 478 kts | 355° |
| 2026-04-22 12:28 | 46.90644 | -9.48637 | 35957 ft | 478 kts | 355° |
| 2026-04-22 12:29 | 46.97286 | -9.48697 | 35961 ft | 477 kts | 355° |
| 2026-04-22 12:29 | 47.03911 | -9.48757 | 35965 ft | 476 kts | 355° |
| 2026-04-22 12:30 | 47.13784 | -9.48847 | 35964 ft | 474 kts | 355° |
| 2026-04-22 12:31 | 47.20379 | -9.48907 | 35961 ft | 474 kts | 355° |
| 2026-04-22 12:31 | 47.26978 | -9.48968 | 35966 ft | 474 kts | 355° |
| 2026-04-22 12:32 | 47.33602 | -9.49030 | 35974 ft | 478 kts | 356° |
| 2026-04-22 12:32 | 47.43576 | -9.49121 | 35957 ft | 476 kts | 356° |
| 2026-04-22 12:33 | 47.50192 | -9.49181 | 35959 ft | 475 kts | 356° |
| 2026-04-22 12:33 | 47.56787 | -9.49241 | 35960 ft | 473 kts | 356° |
| 2026-04-22 12:34 | 47.63363 | -9.49303 | 35966 ft | 472 kts | 356° |
| 2026-04-22 12:34 | 47.69932 | -9.49365 | 35967 ft | 472 kts | 356° |
| 2026-04-22 12:35 | 47.76508 | -9.49427 | 35968 ft | 473 kts | 356° |
| 2026-04-22 12:35 | 47.83092 | -9.49489 | 35968 ft | 474 kts | 356° |
| 2026-04-22 12:36 | 47.89705 | -9.49551 | 35969 ft | 476 kts | 356° |
| 2026-04-22 12:36 | 47.96291 | -9.49613 | 35969 ft | 477 kts | 356° |
| 2026-04-22 12:37 | 48.02939 | -9.49675 | 35969 ft | 479 kts | 356° |
| 2026-04-22 12:37 | 48.09612 | -9.49738 | 35970 ft | 480 kts | 356° |
| 2026-04-22 12:38 | 48.16303 | -9.49802 | 35970 ft | 481 kts | 356° |
| 2026-04-22 12:38 | 48.23001 | -9.49865 | 35970 ft | 482 kts | 357° |
| 2026-04-22 12:39 | 48.33073 | -9.49961 | 35967 ft | 483 kts | 357° |
| 2026-04-22 12:40 | 48.39791 | -9.50025 | 35967 ft | 483 kts | 357° |
| 2026-04-22 12:40 | 48.46511 | -9.50090 | 35966 ft | 483 kts | 357° |
| 2026-04-22 12:41 | 48.53225 | -9.50154 | 35970 ft | 483 kts | 357° |
| 2026-04-22 12:41 | 48.59936 | -9.50219 | 35970 ft | 482 kts | 357° |
| 2026-04-22 12:42 | 48.66604 | -9.48996 | 35973 ft | 485 kts | 15° |
| 2026-04-22 12:42 | 48.72910 | -9.45402 | 35976 ft | 485 kts | 22° |
| 2026-04-22 12:43 | 48.79140 | -9.41494 | 35978 ft | 484 kts | 22° |
| 2026-04-22 12:43 | 48.85338 | -9.37645 | 35982 ft | 484 kts | 22° |
| 2026-04-22 12:44 | 48.91588 | -9.33822 | 35983 ft | 484 kts | 22° |
| 2026-04-22 12:44 | 48.97842 | -9.30015 | 35989 ft | 484 kts | 22° |
| 2026-04-22 12:45 | 49.04090 | -9.26203 | 35995 ft | 484 kts | 22° |
| 2026-04-22 12:45 | 49.10332 | -9.22382 | 35994 ft | 484 kts | 22° |
| 2026-04-22 12:46 | 49.16577 | -9.18547 | 36002 ft | 483 kts | 22° |
| 2026-04-22 12:46 | 49.22810 | -9.14707 | 36006 ft | 483 kts | 22° |
| 2026-04-22 12:47 | 49.29041 | -9.10859 | 36013 ft | 482 kts | 22° |
| 2026-04-22 12:47 | 49.35259 | -9.07009 | 36015 ft | 482 kts | 22° |
| 2026-04-22 12:48 | 49.41473 | -9.03149 | 36022 ft | 482 kts | 22° |
| 2026-04-22 12:48 | 49.47686 | -8.99281 | 36026 ft | 482 kts | 22° |
| 2026-04-22 12:49 | 49.53906 | -8.95398 | 36030 ft | 482 kts | 22° |
| 2026-04-22 12:49 | 49.60117 | -8.91509 | 36032 ft | 482 kts | 23° |
| 2026-04-22 12:50 | 49.66329 | -8.87608 | 36034 ft | 482 kts | 23° |
| 2026-04-22 12:50 | 49.72490 | -8.83730 | 36043 ft | 481 kts | 23° |
| 2026-04-22 12:51 | 49.78685 | -8.79819 | 36048 ft | 481 kts | 23° |
| 2026-04-22 12:51 | 49.84884 | -8.75895 | 36051 ft | 482 kts | 23° |
| 2026-04-22 12:52 | 49.91084 | -8.71958 | 36055 ft | 482 kts | 23° |
| 2026-04-22 12:52 | 49.97296 | -8.68004 | 36061 ft | 482 kts | 23° |
| 2026-04-22 12:53 | 50.03504 | -8.64041 | 36066 ft | 482 kts | 23° |
| 2026-04-22 12:53 | 50.09706 | -8.60071 | 36073 ft | 482 kts | 23° |
| 2026-04-22 12:54 | 50.15899 | -8.56095 | 36070 ft | 480 kts | 23° |
| 2026-04-22 12:54 | 50.22069 | -8.52152 | 36073 ft | 478 kts | 19° |
| 2026-04-22 12:54 | 50.25286 | -8.50929 | 36076 ft | 476 kts | 5° |
| 2026-04-22 12:55 | 50.27475 | -8.50756 | 36090 ft | 476 kts | 356° |
| 2026-04-22 12:55 | 50.31851 | -8.51730 | 36086 ft | 476 kts | 341° |
| 2026-04-22 12:55 | 50.35022 | -8.53241 | 36106 ft | 477 kts | 340° |
| 2026-04-22 12:56 | 50.41360 | -8.56370 | 36081 ft | 477 kts | 340° |
| 2026-04-22 12:56 | 50.47682 | -8.59431 | 36087 ft | 475 kts | 340° |
| 2026-04-22 12:57 | 50.54011 | -8.62436 | 36097 ft | 475 kts | 341° |
| 2026-04-22 12:57 | 50.59277 | -8.64927 | 36089 ft | 476 kts | 341° |
| 2026-04-22 12:58 | 50.65625 | -8.67938 | 36106 ft | 477 kts | 341° |
| 2026-04-22 12:58 | 50.71979 | -8.70963 | 36106 ft | 478 kts | 341° |
| 2026-04-22 12:59 | 50.78340 | -8.74003 | 36108 ft | 478 kts | 341° |
| 2026-04-22 12:59 | 50.84713 | -8.77056 | 36113 ft | 478 kts | 341° |
| 2026-04-22 13:00 | 50.91081 | -8.80116 | 36110 ft | 478 kts | 341° |
| 2026-04-22 13:00 | 50.97443 | -8.83181 | 36119 ft | 478 kts | 341° |
| 2026-04-22 13:01 | 51.03906 | -8.85541 | 36099 ft | 478 kts | 1° |
| 2026-04-22 13:01 | 51.07189 | -8.84891 | 36136 ft | 476 kts | 17° |
| 2026-04-22 13:01 | 51.10262 | -8.82982 | 36128 ft | 474 kts | 30° |
| 2026-04-22 13:02 | 51.16043 | -8.77838 | 36136 ft | 478 kts | 32° |
| 2026-04-22 13:02 | 51.21831 | -8.72582 | 36121 ft | 481 kts | 31° |
| 2026-04-22 13:03 | 51.27688 | -8.67351 | 36126 ft | 483 kts | 31° |
| 2026-04-22 13:03 | 51.33564 | -8.62157 | 36116 ft | 481 kts | 31° |
| 2026-04-22 13:04 | 51.39343 | -8.57053 | 36122 ft | 474 kts | 31° |
| 2026-04-22 13:04 | 51.45115 | -8.51938 | 36131 ft | 469 kts | 31° |
| 2026-04-22 13:05 | 51.50754 | -8.46921 | 36143 ft | 465 kts | 31° |
| 2026-04-22 13:05 | 51.56407 | -8.41874 | 36146 ft | 465 kts | 31° |
| 2026-04-22 13:06 | 51.62057 | -8.36816 | 36155 ft | 465 kts | 31° |
| 2026-04-22 13:06 | 51.67722 | -8.31730 | 36168 ft | 467 kts | 31° |
| 2026-04-22 13:07 | 51.73416 | -8.26602 | 36165 ft | 472 kts | 31° |
| 2026-04-22 13:07 | 51.79168 | -8.21408 | 36164 ft | 475 kts | 31° |
| 2026-04-22 13:08 | 51.84938 | -8.16184 | 36158 ft | 475 kts | 31° |
| 2026-04-22 13:08 | 51.90693 | -8.10958 | 36175 ft | 473 kts | 31° |
| 2026-04-22 13:09 | 51.96413 | -8.05748 | 36187 ft | 470 kts | 31° |
| 2026-04-22 13:09 | 52.02087 | -8.00565 | 36203 ft | 466 kts | 31° |
| 2026-04-22 13:10 | 52.07705 | -7.95417 | 36195 ft | 462 kts | 31° |
| 2026-04-22 13:10 | 52.13293 | -7.90281 | 36234 ft | 462 kts | 31° |
| 2026-04-22 13:11 | 52.18877 | -7.85133 | 36222 ft | 461 kts | 31° |
| 2026-04-22 13:11 | 52.24431 | -7.79999 | 36240 ft | 464 kts | 30° |
| 2026-04-22 13:12 | 52.30069 | -7.74772 | 36258 ft | 469 kts | 30° |
| 2026-04-22 13:12 | 52.35761 | -7.69480 | 36238 ft | 471 kts | 30° |
| 2026-04-22 13:13 | 52.41441 | -7.64183 | 36243 ft | 469 kts | 30° |
| 2026-04-22 13:13 | 52.47072 | -7.58917 | 36243 ft | 462 kts | 30° |
| 2026-04-22 13:14 | 52.52638 | -7.53695 | 36253 ft | 459 kts | 30° |
| 2026-04-22 13:14 | 52.58169 | -7.48491 | 36251 ft | 457 kts | 30° |
| 2026-04-22 13:15 | 52.63680 | -7.43289 | 36275 ft | 457 kts | 30° |
| 2026-04-22 13:15 | 52.69207 | -7.38058 | 36272 ft | 459 kts | 30° |
| 2026-04-22 13:16 | 52.74735 | -7.32811 | 36265 ft | 458 kts | 30° |
| 2026-04-22 13:16 | 52.80246 | -7.27564 | 36265 ft | 456 kts | 30° |
| 2026-04-22 13:17 | 52.85744 | -7.22314 | 36281 ft | 457 kts | 30° |
| 2026-04-22 13:17 | 52.91257 | -7.17034 | 36293 ft | 459 kts | 30° |
| 2026-04-22 13:18 | 52.96801 | -7.11709 | 36286 ft | 462 kts | 30° |
| 2026-04-22 13:18 | 53.02355 | -7.06358 | 36289 ft | 462 kts | 30° |
| 2026-04-22 13:19 | 53.07867 | -7.01031 | 36290 ft | 460 kts | 30° |
| 2026-04-22 13:19 | 53.13398 | -6.95671 | 36303 ft | 460 kts | 30° |
| 2026-04-22 13:20 | 53.18939 | -6.90284 | 36308 ft | 462 kts | 30° |
| 2026-04-22 13:20 | 53.24490 | -6.84871 | 36315 ft | 463 kts | 30° |
| 2026-04-22 13:21 | 53.30050 | -6.79435 | 36313 ft | 463 kts | 30° |
| 2026-04-22 13:21 | 53.35134 | -6.74446 | 36317 ft | 462 kts | 30° |
| 2026-04-22 13:22 | 53.40662 | -6.69007 | 36321 ft | 459 kts | 30° |
| 2026-04-22 13:22 | 53.46134 | -6.63606 | 36322 ft | 455 kts | 30° |
| 2026-04-22 13:23 | 53.51572 | -6.58224 | 36337 ft | 452 kts | 30° |
| 2026-04-22 13:23 | 53.56997 | -6.52838 | 36353 ft | 454 kts | 30° |
| 2026-04-22 13:24 | 53.62452 | -6.47407 | 36355 ft | 456 kts | 30° |
| 2026-04-22 13:24 | 53.67875 | -6.41990 | 36355 ft | 457 kts | 30° |
| 2026-04-22 13:25 | 53.73339 | -6.36515 | 36352 ft | 457 kts | 30° |
| 2026-04-22 13:25 | 53.78806 | -6.31021 | 36377 ft | 456 kts | 30° |
| 2026-04-22 13:26 | 53.84249 | -6.25534 | 36367 ft | 454 kts | 30° |
| 2026-04-22 13:26 | 53.89661 | -6.20063 | 36383 ft | 452 kts | 30° |
| 2026-04-22 13:27 | 53.95056 | -6.14591 | 36374 ft | 450 kts | 30° |
| 2026-04-22 13:27 | 54.00362 | -6.09192 | 36371 ft | 436 kts | 29° |
| 2026-04-22 13:28 | 54.05614 | -6.04210 | 36405 ft | 431 kts | 24° |
| 2026-04-22 13:28 | 54.08312 | -6.02000 | 36285 ft | 428 kts | 23° |
| 2026-04-22 13:28 | 54.11007 | -5.99848 | 35667 ft | 430 kts | 23° |
| 2026-04-22 13:28 | 54.13748 | -5.97665 | 34863 ft | 439 kts | 23° |
| 2026-04-22 13:29 | 54.16541 | -5.95424 | 33944 ft | 448 kts | 23° |
| 2026-04-22 13:29 | 54.19389 | -5.93117 | 32964 ft | 457 kts | 23° |
| 2026-04-22 13:29 | 54.22279 | -5.90754 | 32022 ft | 464 kts | 23° |
| 2026-04-22 13:29 | 54.25188 | -5.88359 | 31493 ft | 461 kts | 23° |
| 2026-04-22 13:30 | 54.28055 | -5.85988 | 31053 ft | 458 kts | 23° |
| 2026-04-22 13:30 | 54.30953 | -5.83590 | 30658 ft | 466 kts | 23° |
| 2026-04-22 13:30 | 54.33900 | -5.81151 | 30201 ft | 475 kts | 23° |
| 2026-04-22 13:30 | 54.36888 | -5.78674 | 29713 ft | 476 kts | 23° |
| 2026-04-22 13:31 | 54.39863 | -5.76202 | 29255 ft | 474 kts | 23° |
| 2026-04-22 13:31 | 54.42825 | -5.73736 | 28800 ft | 473 kts | 24° |
| 2026-04-22 13:31 | 54.45778 | -5.71274 | 28380 ft | 471 kts | 23° |
| 2026-04-22 13:31 | 54.48723 | -5.68816 | 27915 ft | 471 kts | 23° |
| 2026-04-22 13:32 | 54.51666 | -5.66357 | 27474 ft | 471 kts | 23° |
| 2026-04-22 13:32 | 54.54625 | -5.63882 | 27039 ft | 475 kts | 24° |
| 2026-04-22 13:32 | 54.57605 | -5.61372 | 26596 ft | 479 kts | 25° |
| 2026-04-22 13:32 | 54.60415 | -5.58496 | 26131 ft | 481 kts | 33° |
| 2026-04-22 13:33 | 54.63082 | -5.54847 | 25649 ft | 476 kts | 36° |
| 2026-04-22 13:33 | 54.65704 | -5.51527 | 25161 ft | 471 kts | 33° |
| 2026-04-22 13:33 | 54.68394 | -5.48364 | 24725 ft | 467 kts | 32° |
| 2026-04-22 13:33 | 54.71107 | -5.45227 | 24296 ft | 458 kts | 32° |
| 2026-04-22 13:34 | 54.73692 | -5.42206 | 23820 ft | 451 kts | 32° |
| 2026-04-22 13:34 | 54.76251 | -5.39163 | 23339 ft | 443 kts | 33° |
| 2026-04-22 13:34 | 54.78757 | -5.36137 | 22904 ft | 435 kts | 33° |
| 2026-04-22 13:34 | 54.81206 | -5.33149 | 22495 ft | 427 kts | 33° |
| 2026-04-22 13:35 | 54.83613 | -5.30198 | 22093 ft | 420 kts | 33° |
| 2026-04-22 13:35 | 54.85975 | -5.27293 | 21683 ft | 413 kts | 34° |
| 2026-04-22 13:35 | 54.88300 | -5.24428 | 21287 ft | 407 kts | 34° |
| 2026-04-22 13:35 | 54.90597 | -5.21596 | 20901 ft | 401 kts | 34° |
| 2026-04-22 13:36 | 54.92861 | -5.18803 | 20520 ft | 396 kts | 34° |
| 2026-04-22 13:36 | 54.95096 | -5.16042 | 20158 ft | 393 kts | 35° |
| 2026-04-22 13:36 | 54.97320 | -5.13291 | 19773 ft | 391 kts | 35° |
| 2026-04-22 13:36 | 54.99523 | -5.10563 | 19411 ft | 388 kts | 36° |
| 2026-04-22 13:37 | 55.01719 | -5.07839 | 19031 ft | 386 kts | 36° |
| 2026-04-22 13:37 | 55.03899 | -5.05132 | 18665 ft | 384 kts | 36° |
| 2026-04-22 13:37 | 55.06063 | -5.02440 | 18244 ft | 381 kts | 37° |
| 2026-04-22 13:37 | 55.08212 | -4.99764 | 17862 ft | 378 kts | 37° |
| 2026-04-22 13:38 | 55.10241 | -4.96904 | 17477 ft | 372 kts | 48° |
| 2026-04-22 13:38 | 55.13004 | -4.89524 | 16993 ft | 359 kts | 63° |
| 2026-04-22 13:38 | 55.14570 | -4.86130 | 16784 ft | 362 kts | 44° |
| 2026-04-22 13:39 | 55.16518 | -4.83336 | 16583 ft | 364 kts | 40° |
| 2026-04-22 13:39 | 55.18537 | -4.80652 | 16369 ft | 364 kts | 39° |
| 2026-04-22 13:39 | 55.20557 | -4.78011 | 16174 ft | 361 kts | 39° |
| 2026-04-22 13:39 | 55.22568 | -4.75401 | 15997 ft | 358 kts | 39° |
| 2026-04-22 13:40 | 55.24567 | -4.72816 | 15806 ft | 356 kts | 39° |
| 2026-04-22 13:40 | 55.26556 | -4.70252 | 15615 ft | 355 kts | 39° |
| 2026-04-22 13:40 | 55.28565 | -4.67669 | 15193 ft | 359 kts | 39° |
| 2026-04-22 13:40 | 55.30577 | -4.65084 | 14839 ft | 358 kts | 39° |
| 2026-04-22 13:41 | 55.32592 | -4.62502 | 14472 ft | 358 kts | 39° |
| 2026-04-22 13:41 | 55.34606 | -4.59928 | 14102 ft | 356 kts | 39° |
| 2026-04-22 13:41 | 55.36601 | -4.57386 | 13694 ft | 353 kts | 39° |
| 2026-04-22 13:41 | 55.38584 | -4.54863 | 13300 ft | 350 kts | 39° |
| 2026-04-22 13:42 | 55.40525 | -4.52395 | 12903 ft | 348 kts | 39° |
| 2026-04-22 13:42 | 55.42478 | -4.49915 | 12509 ft | 346 kts | 39° |
| 2026-04-22 13:42 | 55.44428 | -4.47445 | 12131 ft | 343 kts | 39° |
| 2026-04-22 13:42 | 55.46359 | -4.44997 | 11745 ft | 342 kts | 39° |
| 2026-04-22 13:43 | 55.48284 | -4.42559 | 11366 ft | 340 kts | 39° |
| 2026-04-22 13:43 | 55.50196 | -4.40139 | 11000 ft | 337 kts | 39° |
| 2026-04-22 13:43 | 55.52098 | -4.37729 | 10643 ft | 336 kts | 39° |
| 2026-04-22 13:43 | 55.53991 | -4.35335 | 10272 ft | 334 kts | 39° |
| 2026-04-22 13:44 | 55.55873 | -4.32961 | 9877 ft | 332 kts | 39° |
| 2026-04-22 13:44 | 55.57749 | -4.30600 | 9466 ft | 329 kts | 39° |
| 2026-04-22 13:44 | 55.59589 | -4.28224 | 9105 ft | 324 kts | 44° |
| 2026-04-22 13:44 | 55.61110 | -4.25359 | 8791 ft | 317 kts | 53° |
| 2026-04-22 13:45 | 55.62519 | -4.22394 | 8459 ft | 313 kts | 53° |
| 2026-04-22 13:45 | 55.63900 | -4.19459 | 8122 ft | 307 kts | 54° |
| 2026-04-22 13:45 | 55.65254 | -4.16582 | 7793 ft | 301 kts | 54° |
| 2026-04-22 13:45 | 55.66580 | -4.13768 | 7466 ft | 294 kts | 54° |
| 2026-04-22 13:46 | 55.67868 | -4.11032 | 7133 ft | 286 kts | 54° |
| 2026-04-22 13:46 | 55.69126 | -4.08364 | 6807 ft | 279 kts | 54° |
| 2026-04-22 13:46 | 55.70355 | -4.05760 | 6499 ft | 271 kts | 53° |
| 2026-04-22 13:46 | 55.71546 | -4.03232 | 6281 ft | 264 kts | 53° |
| 2026-04-22 13:47 | 55.72726 | -4.00750 | 6034 ft | 263 kts | 54° |
| 2026-04-22 13:47 | 55.73902 | -3.98288 | 5815 ft | 261 kts | 54° |
| 2026-04-22 13:47 | 55.74678 | -3.96655 | 5667 ft | 261 kts | 54° |
| 2026-04-22 13:47 | 55.75839 | -3.94183 | 5437 ft | 261 kts | 56° |
| 2026-04-22 13:48 | 55.76819 | -3.91593 | 5230 ft | 260 kts | 63° |
| 2026-04-22 13:48 | 55.77716 | -3.88841 | 5137 ft | 252 kts | 65° |
| 2026-04-22 13:48 | 55.78573 | -3.86205 | 5131 ft | 242 kts | 64° |
| 2026-04-22 13:48 | 55.79405 | -3.83683 | 5121 ft | 230 kts | 63° |
| 2026-04-22 13:49 | 55.80201 | -3.81304 | 5123 ft | 221 kts | 64° |
| 2026-04-22 13:49 | 55.80988 | -3.78938 | 5122 ft | 223 kts | 64° |
| 2026-04-22 13:49 | 55.81784 | -3.76558 | 5084 ft | 226 kts | 63° |
| 2026-04-22 13:49 | 55.82590 | -3.74139 | 4815 ft | 228 kts | 63° |
| 2026-04-22 13:50 | 55.83409 | -3.71703 | 4475 ft | 228 kts | 63° |
| 2026-04-22 13:50 | 55.84210 | -3.69313 | 4183 ft | 221 kts | 63° |
| 2026-04-22 13:50 | 55.84990 | -3.66969 | 3878 ft | 217 kts | 64° |
| 2026-04-22 13:50 | 55.85743 | -3.64719 | 3592 ft | 207 kts | 62° |
| 2026-04-22 13:51 | 55.86469 | -3.62597 | 3296 ft | 197 kts | 63° |
| 2026-04-22 13:51 | 55.87141 | -3.60549 | 3048 ft | 191 kts | 62° |
| 2026-04-22 13:51 | 55.87810 | -3.58563 | 2938 ft | 181 kts | 62° |
| 2026-04-22 13:51 | 55.88468 | -3.56644 | 2560 ft | 182 kts | 61° |
| 2026-04-22 13:52 | 55.89107 | -3.54760 | 2331 ft | 174 kts | 62° |
| 2026-04-22 13:52 | 55.89713 | -3.52933 | 2089 ft | 168 kts | 62° |
| 2026-04-22 13:52 | 55.90304 | -3.51160 | 1783 ft | 166 kts | 61° |
| 2026-04-22 13:52 | 55.90893 | -3.49423 | 1591 ft | 160 kts | 61° |
| 2026-04-22 13:53 | 55.91457 | -3.47754 | 1360 ft | 155 kts | 62° |
| 2026-04-22 13:53 | 55.91989 | -3.46152 | 1171 ft | 144 kts | 61° |
| 2026-04-22 13:53 | 55.92483 | -3.44680 | 984 ft | 137 kts | 60° |
| 2026-04-22 13:53 | 55.92984 | -3.43213 | 776 ft | 136 kts | 59° |
| 2026-04-22 13:54 | 55.93469 | -3.41771 | 571 ft | 136 kts | 60° |
| 2026-04-22 13:54 | 55.93961 | -3.40312 | 372 ft | 135 kts | 60° |
| 2026-04-22 13:54 | 55.94444 | -3.38892 | 178 ft | 134 kts | 58° |
| 2026-04-22 13:54 | 55.94899 | -3.37544 | 112 ft | 104 kts | 59° |
| 2026-04-22 13:55 | 55.95160 | -3.36776 | 113 ft | 46 kts | 59° |
| 2026-04-22 13:55 | 55.95253 | -3.36506 | 110 ft | 11 kts | 58° |
| 2026-04-22 13:55 | 55.95234 | -3.36400 | 110 ft | 10 kts | 143° |
| 2026-04-22 13:55 | 55.95175 | -3.36333 | 111 ft | 9 kts | 148° |
| 2026-04-22 13:56 | 55.95155 | -3.36313 | 111 ft | 2 kts | 159° |
| 2026-04-22 13:56 | 55.95134 | -3.36319 | 111 ft | 5 kts | 202° |
| 2026-04-22 13:56 | 55.95101 | -3.36379 | 111 ft | 9 kts | 231° |
| 2026-04-22 13:56 | 55.95060 | -3.36504 | 111 ft | 14 kts | 239° |
| 2026-04-22 13:57 | 55.95003 | -3.36670 | 111 ft | 16 kts | 238° |
| 2026-04-22 13:57 | 55.94949 | -3.36816 | 111 ft | 10 kts | 217° |
| 2026-04-22 13:57 | 55.94889 | -3.36796 | 111 ft | 9 kts | 151° |
| 2026-04-22 13:57 | 55.94845 | -3.36776 | 111 ft | 2 kts | 165° |
| 2026-04-22 13:58 | 55.94830 | -3.36769 | 111 ft | 3 kts | 165° |
| 2026-04-22 13:58 | 55.94805 | -3.36739 | 111 ft | 6 kts | 123° |
| 2026-04-22 13:58 | 55.94802 | -3.36658 | 111 ft | 5 kts | 87° |
| 2026-04-22 13:58 | 55.94802 | -3.36643 | 111 ft | 0 kts | 88° |